Pagrindinis puslapis
METAR-TAF:

METAR-TAF

Oro uostai :

Tingo María, Peru

platuma: 09-17-15S, ilguma: 076-00-18W, Aukštis: 654 m

Dabartinis oras

Ataskaita buvo paskelbta 3 valandos ir 25 minutes, ne 20:00 UTC
Vėjas 4 kt iš Šiaurės/Šiaurės Rytų
Temperatūra 31°C
Drėgmė 55%
Slėgis 1010 hPa
Matomumas 10 km arba daugiau
Mažai debesys ne aukštis 4000 ft
Išsisklaidę debesys ne aukštis 10000 ft

METAR: SPGM 282000Z 03004KT 9999 FEW040 SCT100 31/21 Q1010 RMK PP000

Laikas: 18:25 (23:25 UTC)

Prognozė

Ataskaita buvo paskelbta 6 valandos ir 25 minutes, ne 17:00 UTC
Prognozė galioja nuo 28 metu 18 UTC su 29 metu 18 UTC
Vėjas 5 kt iš Rytų/Šiaurės Rytų
Matomumas 10 km arba daugiau
Mažai debesys ne aukštis 3000 ft
Su prošvaistėmis ne aukštis 10000 ft

TAF: SPGM 281700Z 2818/2918 06005KT 9999 FEW030 BKN100 TX32/2819Z TN21/2911Z

Orai ataskaitas ir orų prognozės (METAR, TAF).

turimą stotys yra geltonos ir raudonos taškus žemėlapyje.

Perkelti pele per norėdami pamatyti stoties vardą.

Tada spustelėkite, norėdami matyti oro stebėjimo ir prognozės.

Norėdami pakeisti žemėlapį: spustelėkite ant žalios mygtukų su juodo kryžiaus žemyn,; žalią mygtuką su brūkšneliu, jei norite nutolinti; arba žalių rodyklių gretimoms žemėlapius.


METAR-TAF: